We Are Not Flying Today
Due to the bad weather, flying today is probably not going to proceed. Please call our operations team for a weather update. If the weather is too bad, you can re-schedule your flight on the phone for another time/date.

We recommend that you phone ahead before traveling
John Monaghan - Flight Operations: 0862486210
EIDW 210800Z 17015KT 9999 -SHRA FEW016 SCT018CB BKN024 13/09 Q0980 NOSIG